sensor_id;sensor_type;location;lat;lon;timestamp;P1;durP1;ratioP1;P2;durP2;ratioP2
40695;SDS011;40425;51.102;17.208;2023-02-28T00:02:53;22.07;;;10.37;;
40695;SDS011;40425;51.102;17.208;2023-02-28T00:07:54;24.13;;;10.57;;
40695;SDS011;40425;51.102;17.208;2023-02-28T00:12:58;19.70;;;9.50;;
40695;SDS011;40425;51.102;17.208;2023-02-28T00:18:01;28.97;;;13.00;;
40695;SDS011;40425;51.102;17.208;2023-02-28T00:23:03;28.60;;;13.07;;
40695;SDS011;40425;51.102;17.208;2023-02-28T00:28:04;35.73;;;14.93;;
40695;SDS011;40425;51.102;17.208;2023-02-28T00:33:04;30.10;;;13.27;;
40695;SDS011;40425;51.102;17.208;2023-02-28T00:38:05;30.90;;;13.27;;
40695;SDS011;40425;51.102;17.208;2023-02-28T00:43:06;32.73;;;13.37;;
40695;SDS011;40425;51.102;17.208;2023-02-28T00:48:07;34.37;;;13.33;;
40695;SDS011;40425;51.102;17.208;2023-02-28T00:53:08;32.07;;;15.23;;
40695;SDS011;40425;51.102;17.208;2023-02-28T00:58:09;32.13;;;14.10;;
40695;SDS011;40425;51.102;17.208;2023-02-28T01:03:10;32.17;;;14.67;;
40695;SDS011;40425;51.102;17.208;2023-02-28T01:08:11;33.77;;;13.87;;
40695;SDS011;40425;51.102;17.208;2023-02-28T01:13:13;27.53;;;13.03;;
40695;SDS011;40425;51.102;17.208;2023-02-28T01:18:14;26.33;;;13.20;;
40695;SDS011;40425;51.102;17.208;2023-02-28T01:23:15;33.23;;;12.90;;
40695;SDS011;40425;51.102;17.208;2023-02-28T01:28:15;30.93;;;13.60;;
40695;SDS011;40425;51.102;17.208;2023-02-28T01:33:16;26.83;;;13.33;;
40695;SDS011;40425;51.102;17.208;2023-02-28T01:38:17;27.07;;;13.13;;
40695;SDS011;40425;51.102;17.208;2023-02-28T01:43:25;25.10;;;13.30;;
40695;SDS011;40425;51.102;17.208;2023-02-28T01:48:32;28.80;;;12.73;;
40695;SDS011;40425;51.102;17.208;2023-02-28T01:53:39;30.60;;;14.33;;
40695;SDS011;40425;51.102;17.208;2023-02-28T01:58:48;28.73;;;14.03;;
40695;SDS011;40425;51.102;17.208;2023-02-28T02:03:51;34.67;;;13.83;;
40695;SDS011;40425;51.102;17.208;2023-02-28T02:08:55;30.30;;;13.00;;
40695;SDS011;40425;51.102;17.208;2023-02-28T02:40:25;28.87;;;14.17;;
40695;SDS011;40425;51.102;17.208;2023-02-28T02:45:37;27.77;;;12.50;;
40695;SDS011;40425;51.102;17.208;2023-02-28T02:51:06;27.50;;;12.80;;
40695;SDS011;40425;51.102;17.208;2023-02-28T02:56:12;28.20;;;14.80;;
40695;SDS011;40425;51.102;17.208;2023-02-28T03:01:23;24.67;;;14.60;;
40695;SDS011;40425;51.102;17.208;2023-02-28T03:06:29;30.23;;;14.33;;
40695;SDS011;40425;51.102;17.208;2023-02-28T03:11:30;30.13;;;14.00;;
40695;SDS011;40425;51.102;17.208;2023-02-28T03:27:09;26.80;;;13.17;;
40695;SDS011;40425;51.102;17.208;2023-02-28T03:32:26;28.73;;;13.17;;
40695;SDS011;40425;51.102;17.208;2023-02-28T03:37:33;31.73;;;14.23;;
40695;SDS011;40425;51.102;17.208;2023-02-28T03:42:37;28.03;;;13.83;;
40695;SDS011;40425;51.102;17.208;2023-02-28T03:47:45;25.97;;;13.37;;
40695;SDS011;40425;51.102;17.208;2023-02-28T03:53:03;26.47;;;12.80;;
40695;SDS011;40425;51.102;17.208;2023-02-28T03:58:14;26.20;;;13.07;;
40695;SDS011;40425;51.102;17.208;2023-02-28T04:03:27;34.63;;;16.97;;
40695;SDS011;40425;51.102;17.208;2023-02-28T04:08:27;31.67;;;14.53;;
40695;SDS011;40425;51.102;17.208;2023-02-28T04:13:28;36.40;;;16.30;;
40695;SDS011;40425;51.102;17.208;2023-02-28T04:18:29;33.27;;;14.67;;
40695;SDS011;40425;51.102;17.208;2023-02-28T04:23:30;34.40;;;16.20;;
40695;SDS011;40425;51.102;17.208;2023-02-28T04:28:31;31.03;;;13.37;;
40695;SDS011;40425;51.102;17.208;2023-02-28T04:33:33;29.20;;;13.93;;
40695;SDS011;40425;51.102;17.208;2023-02-28T04:38:34;35.93;;;16.10;;
40695;SDS011;40425;51.102;17.208;2023-02-28T04:43:37;24.97;;;12.60;;
40695;SDS011;40425;51.102;17.208;2023-02-28T04:48:38;28.70;;;12.90;;
40695;SDS011;40425;51.102;17.208;2023-02-28T04:53:40;29.63;;;12.73;;
40695;SDS011;40425;51.102;17.208;2023-02-28T04:58:41;23.00;;;12.03;;
40695;SDS011;40425;51.102;17.208;2023-02-28T05:03:43;26.03;;;13.17;;
40695;SDS011;40425;51.102;17.208;2023-02-28T05:08:44;25.03;;;12.70;;
40695;SDS011;40425;51.102;17.208;2023-02-28T05:13:45;27.17;;;11.90;;
40695;SDS011;40425;51.102;17.208;2023-02-28T05:18:46;30.20;;;13.77;;
40695;SDS011;40425;51.102;17.208;2023-02-28T05:23:48;25.57;;;12.33;;
40695;SDS011;40425;51.102;17.208;2023-02-28T05:28:48;28.17;;;11.67;;
40695;SDS011;40425;51.102;17.208;2023-02-28T05:33:49;30.77;;;13.33;;
40695;SDS011;40425;51.102;17.208;2023-02-28T05:38:51;30.53;;;13.73;;
40695;SDS011;40425;51.102;17.208;2023-02-28T05:43:52;25.60;;;13.07;;
40695;SDS011;40425;51.102;17.208;2023-02-28T05:48:53;27.83;;;13.60;;
40695;SDS011;40425;51.102;17.208;2023-02-28T05:53:58;24.07;;;13.73;;
40695;SDS011;40425;51.102;17.208;2023-02-28T05:59:00;26.57;;;14.47;;
40695;SDS011;40425;51.102;17.208;2023-02-28T06:04:01;28.33;;;13.73;;
40695;SDS011;40425;51.102;17.208;2023-02-28T06:09:04;24.17;;;13.57;;
40695;SDS011;40425;51.102;17.208;2023-02-28T06:14:05;23.87;;;12.40;;
40695;SDS011;40425;51.102;17.208;2023-02-28T06:19:08;23.63;;;12.27;;
40695;SDS011;40425;51.102;17.208;2023-02-28T06:24:10;23.30;;;13.17;;
40695;SDS011;40425;51.102;17.208;2023-02-28T06:29:11;29.57;;;15.47;;
40695;SDS011;40425;51.102;17.208;2023-02-28T06:34:13;23.40;;;12.97;;
40695;SDS011;40425;51.102;17.208;2023-02-28T06:39:14;24.97;;;12.97;;
40695;SDS011;40425;51.102;17.208;2023-02-28T06:44:16;25.50;;;13.50;;
40695;SDS011;40425;51.102;17.208;2023-02-28T06:49:17;16.67;;;9.53;;
40695;SDS011;40425;51.102;17.208;2023-02-28T06:54:19;16.77;;;8.90;;
40695;SDS011;40425;51.102;17.208;2023-02-28T06:59:20;21.33;;;10.63;;
40695;SDS011;40425;51.102;17.208;2023-02-28T07:04:21;16.13;;;8.17;;
40695;SDS011;40425;51.102;17.208;2023-02-28T07:09:22;16.50;;;8.30;;
40695;SDS011;40425;51.102;17.208;2023-02-28T07:14:24;16.73;;;8.60;;
40695;SDS011;40425;51.102;17.208;2023-02-28T07:19:25;14.97;;;8.43;;
40695;SDS011;40425;51.102;17.208;2023-02-28T07:24:26;13.17;;;7.77;;
40695;SDS011;40425;51.102;17.208;2023-02-28T07:29:28;14.43;;;7.17;;
40695;SDS011;40425;51.102;17.208;2023-02-28T07:34:29;16.93;;;7.83;;
40695;SDS011;40425;51.102;17.208;2023-02-28T07:39:30;11.30;;;6.60;;
40695;SDS011;40425;51.102;17.208;2023-02-28T07:44:31;13.10;;;7.80;;
40695;SDS011;40425;51.102;17.208;2023-02-28T07:49:31;12.37;;;7.60;;
40695;SDS011;40425;51.102;17.208;2023-02-28T07:54:33;17.63;;;8.37;;
40695;SDS011;40425;51.102;17.208;2023-02-28T07:59:34;16.73;;;7.67;;
40695;SDS011;40425;51.102;17.208;2023-02-28T08:04:35;16.80;;;8.33;;
40695;SDS011;40425;51.102;17.208;2023-02-28T08:09:36;12.97;;;7.20;;
40695;SDS011;40425;51.102;17.208;2023-02-28T08:14:37;11.93;;;7.20;;
40695;SDS011;40425;51.102;17.208;2023-02-28T08:19:39;6.67;;;3.97;;
40695;SDS011;40425;51.102;17.208;2023-02-28T08:24:43;6.63;;;4.60;;
40695;SDS011;40425;51.102;17.208;2023-02-28T08:29:44;9.73;;;4.23;;
40695;SDS011;40425;51.102;17.208;2023-02-28T08:34:45;10.97;;;4.93;;
40695;SDS011;40425;51.102;17.208;2023-02-28T08:39:46;8.90;;;5.47;;
40695;SDS011;40425;51.102;17.208;2023-02-28T08:44:47;13.53;;;7.00;;
40695;SDS011;40425;51.102;17.208;2023-02-28T08:49:48;12.80;;;6.93;;
40695;SDS011;40425;51.102;17.208;2023-02-28T08:54:49;9.40;;;5.83;;
40695;SDS011;40425;51.102;17.208;2023-02-28T08:59:49;10.27;;;6.30;;
40695;SDS011;40425;51.102;17.208;2023-02-28T09:04:51;11.27;;;5.93;;
40695;SDS011;40425;51.102;17.208;2023-02-28T09:09:52;9.00;;;6.00;;
40695;SDS011;40425;51.102;17.208;2023-02-28T09:14:56;13.80;;;6.70;;
40695;SDS011;40425;51.102;17.208;2023-02-28T09:19:57;10.20;;;5.83;;
40695;SDS011;40425;51.102;17.208;2023-02-28T09:24:58;11.63;;;5.67;;
40695;SDS011;40425;51.102;17.208;2023-02-28T09:29:59;10.77;;;5.70;;
40695;SDS011;40425;51.102;17.208;2023-02-28T09:35:00;13.73;;;4.70;;
40695;SDS011;40425;51.102;17.208;2023-02-28T09:40:01;11.73;;;5.53;;
40695;SDS011;40425;51.102;17.208;2023-02-28T09:45:05;5.80;;;3.10;;
40695;SDS011;40425;51.102;17.208;2023-02-28T09:50:30;7.77;;;3.50;;
40695;SDS011;40425;51.102;17.208;2023-02-28T09:55:39;6.40;;;3.13;;
40695;SDS011;40425;51.102;17.208;2023-02-28T10:00:45;6.20;;;3.40;;
40695;SDS011;40425;51.102;17.208;2023-02-28T10:11:06;6.50;;;4.33;;
40695;SDS011;40425;51.102;17.208;2023-02-28T10:21:56;7.23;;;3.70;;
40695;SDS011;40425;51.102;17.208;2023-02-28T10:27:01;5.87;;;3.40;;
40695;SDS011;40425;51.102;17.208;2023-02-28T10:32:15;8.83;;;4.47;;
40695;SDS011;40425;51.102;17.208;2023-02-28T10:37:19;8.37;;;4.87;;
40695;SDS011;40425;51.102;17.208;2023-02-28T10:42:22;6.90;;;4.23;;
40695;SDS011;40425;51.102;17.208;2023-02-28T10:47:29;6.60;;;3.53;;
40695;SDS011;40425;51.102;17.208;2023-02-28T10:52:37;9.53;;;4.80;;
40695;SDS011;40425;51.102;17.208;2023-02-28T10:57:40;10.57;;;4.73;;
40695;SDS011;40425;51.102;17.208;2023-02-28T11:02:41;7.03;;;4.10;;
40695;SDS011;40425;51.102;17.208;2023-02-28T11:07:50;5.23;;;3.77;;
40695;SDS011;40425;51.102;17.208;2023-02-28T11:13:19;8.53;;;4.17;;
40695;SDS011;40425;51.102;17.208;2023-02-28T11:18:27;8.00;;;4.50;;
40695;SDS011;40425;51.102;17.208;2023-02-28T11:23:40;8.63;;;5.33;;
40695;SDS011;40425;51.102;17.208;2023-02-28T11:28:42;9.93;;;5.00;;
40695;SDS011;40425;51.102;17.208;2023-02-28T11:33:47;9.07;;;4.67;;
40695;SDS011;40425;51.102;17.208;2023-02-28T11:38:53;9.17;;;4.80;;
40695;SDS011;40425;51.102;17.208;2023-02-28T11:55:17;11.10;;;5.90;;
40695;SDS011;40425;51.102;17.208;2023-02-28T12:05:45;12.87;;;7.20;;
40695;SDS011;40425;51.102;17.208;2023-02-28T12:10:57;10.87;;;7.10;;
40695;SDS011;40425;51.102;17.208;2023-02-28T12:22:13;14.57;;;8.13;;
40695;SDS011;40425;51.102;17.208;2023-02-28T12:27:21;10.67;;;6.97;;
40695;SDS011;40425;51.102;17.208;2023-02-28T12:32:34;12.53;;;7.30;;
40695;SDS011;40425;51.102;17.208;2023-02-28T12:37:40;15.00;;;7.17;;
40695;SDS011;40425;51.102;17.208;2023-02-28T12:42:51;13.63;;;6.80;;
40695;SDS011;40425;51.102;17.208;2023-02-28T12:48:05;14.20;;;6.77;;
40695;SDS011;40425;51.102;17.208;2023-02-28T13:03:43;21.17;;;10.70;;
40695;SDS011;40425;51.102;17.208;2023-02-28T13:14:16;16.10;;;10.57;;
40695;SDS011;40425;51.102;17.208;2023-02-28T13:19:22;20.73;;;10.50;;
40695;SDS011;40425;51.102;17.208;2023-02-28T13:24:45;17.20;;;10.13;;
40695;SDS011;40425;51.102;17.208;2023-02-28T13:29:48;19.67;;;11.50;;
40695;SDS011;40425;51.102;17.208;2023-02-28T13:39:53;21.17;;;10.70;;
40695;SDS011;40425;51.102;17.208;2023-02-28T14:00:35;24.03;;;12.57;;
40695;SDS011;40425;51.102;17.208;2023-02-28T14:05:45;19.63;;;10.27;;
40695;SDS011;40425;51.102;17.208;2023-02-28T14:10:50;20.50;;;9.77;;
40695;SDS011;40425;51.102;17.208;2023-02-28T14:16:03;18.57;;;9.43;;
40695;SDS011;40425;51.102;17.208;2023-02-28T14:21:22;13.00;;;7.37;;
40695;SDS011;40425;51.102;17.208;2023-02-28T14:37:20;17.30;;;9.97;;
40695;SDS011;40425;51.102;17.208;2023-02-28T14:42:37;18.37;;;9.10;;
40695;SDS011;40425;51.102;17.208;2023-02-28T14:47:41;21.60;;;10.00;;
40695;SDS011;40425;51.102;17.208;2023-02-28T14:52:43;16.73;;;8.57;;
40695;SDS011;40425;51.102;17.208;2023-02-28T14:57:54;15.63;;;8.50;;
40695;SDS011;40425;51.102;17.208;2023-02-28T15:02:57;16.70;;;8.17;;
40695;SDS011;40425;51.102;17.208;2023-02-28T15:13:06;20.20;;;10.17;;
40695;SDS011;40425;51.102;17.208;2023-02-28T15:18:15;17.77;;;9.73;;
40695;SDS011;40425;51.102;17.208;2023-02-28T15:23:29;18.60;;;9.33;;
40695;SDS011;40425;51.102;17.208;2023-02-28T15:28:31;16.43;;;8.80;;
40695;SDS011;40425;51.102;17.208;2023-02-28T15:33:32;19.37;;;9.27;;
40695;SDS011;40425;51.102;17.208;2023-02-28T15:38:35;19.27;;;9.67;;
40695;SDS011;40425;51.102;17.208;2023-02-28T15:43:44;12.93;;;7.75;;
40695;SDS011;40425;51.102;17.208;2023-02-28T15:53:58;13.37;;;7.43;;
40695;SDS011;40425;51.102;17.208;2023-02-28T15:59:08;14.00;;;7.63;;
40695;SDS011;40425;51.102;17.208;2023-02-28T16:04:18;14.57;;;8.80;;
40695;SDS011;40425;51.102;17.208;2023-02-28T16:09:20;18.27;;;9.37;;
40695;SDS011;40425;51.102;17.208;2023-02-28T16:14:22;13.80;;;9.23;;
40695;SDS011;40425;51.102;17.208;2023-02-28T16:19:27;19.37;;;12.73;;
40695;SDS011;40425;51.102;17.208;2023-02-28T16:24:28;20.27;;;12.23;;
40695;SDS011;40425;51.102;17.208;2023-02-28T16:29:31;20.80;;;12.40;;
40695;SDS011;40425;51.102;17.208;2023-02-28T16:34:35;21.67;;;11.73;;
40695;SDS011;40425;51.102;17.208;2023-02-28T16:39:37;19.57;;;10.47;;
40695;SDS011;40425;51.102;17.208;2023-02-28T16:44:40;20.37;;;10.97;;
40695;SDS011;40425;51.102;17.208;2023-02-28T16:49:41;20.53;;;12.03;;
40695;SDS011;40425;51.102;17.208;2023-02-28T16:54:43;21.63;;;12.60;;
40695;SDS011;40425;51.102;17.208;2023-02-28T16:59:44;24.37;;;14.50;;
40695;SDS011;40425;51.102;17.208;2023-02-28T17:04:45;17.13;;;11.57;;
40695;SDS011;40425;51.102;17.208;2023-02-28T17:09:46;27.93;;;14.53;;
40695;SDS011;40425;51.102;17.208;2023-02-28T17:14:47;25.80;;;15.77;;
40695;SDS011;40425;51.102;17.208;2023-02-28T17:19:48;22.83;;;14.57;;
40695;SDS011;40425;51.102;17.208;2023-02-28T17:24:49;27.77;;;16.67;;
40695;SDS011;40425;51.102;17.208;2023-02-28T17:29:50;29.03;;;16.20;;
40695;SDS011;40425;51.102;17.208;2023-02-28T17:34:51;27.73;;;17.30;;
40695;SDS011;40425;51.102;17.208;2023-02-28T17:39:52;28.30;;;16.37;;
40695;SDS011;40425;51.102;17.208;2023-02-28T17:44:53;28.10;;;17.07;;
40695;SDS011;40425;51.102;17.208;2023-02-28T17:49:53;28.50;;;17.73;;
40695;SDS011;40425;51.102;17.208;2023-02-28T17:54:55;30.73;;;16.67;;
40695;SDS011;40425;51.102;17.208;2023-02-28T17:59:55;34.40;;;20.57;;
40695;SDS011;40425;51.102;17.208;2023-02-28T18:04:57;35.30;;;20.90;;
40695;SDS011;40425;51.102;17.208;2023-02-28T18:09:58;30.00;;;17.77;;
40695;SDS011;40425;51.102;17.208;2023-02-28T18:14:59;30.10;;;16.87;;
40695;SDS011;40425;51.102;17.208;2023-02-28T18:20:00;53.27;;;27.07;;
40695;SDS011;40425;51.102;17.208;2023-02-28T18:25:01;116.53;;;43.60;;
40695;SDS011;40425;51.102;17.208;2023-02-28T18:30:04;54.73;;;28.23;;
40695;SDS011;40425;51.102;17.208;2023-02-28T18:35:05;41.07;;;21.60;;
40695;SDS011;40425;51.102;17.208;2023-02-28T18:40:07;46.27;;;24.90;;
40695;SDS011;40425;51.102;17.208;2023-02-28T18:45:08;46.07;;;24.50;;
40695;SDS011;40425;51.102;17.208;2023-02-28T18:50:10;40.13;;;23.80;;
40695;SDS011;40425;51.102;17.208;2023-02-28T18:55:11;46.87;;;25.03;;
40695;SDS011;40425;51.102;17.208;2023-02-28T19:00:17;42.80;;;23.30;;
40695;SDS011;40425;51.102;17.208;2023-02-28T19:05:21;50.10;;;26.40;;
40695;SDS011;40425;51.102;17.208;2023-02-28T19:10:22;58.80;;;27.27;;
40695;SDS011;40425;51.102;17.208;2023-02-28T19:15:24;61.27;;;27.93;;
40695;SDS011;40425;51.102;17.208;2023-02-28T19:20:25;54.43;;;26.70;;
40695;SDS011;40425;51.102;17.208;2023-02-28T19:25:25;48.53;;;24.73;;
40695;SDS011;40425;51.102;17.208;2023-02-28T19:30:26;49.17;;;25.53;;
40695;SDS011;40425;51.102;17.208;2023-02-28T19:35:27;51.53;;;25.83;;
40695;SDS011;40425;51.102;17.208;2023-02-28T19:40:29;44.47;;;23.70;;
40695;SDS011;40425;51.102;17.208;2023-02-28T19:45:36;51.37;;;26.87;;
40695;SDS011;40425;51.102;17.208;2023-02-28T19:50:37;50.90;;;24.70;;
40695;SDS011;40425;51.102;17.208;2023-02-28T19:55:40;58.67;;;28.50;;
40695;SDS011;40425;51.102;17.208;2023-02-28T20:00:41;60.97;;;30.17;;
40695;SDS011;40425;51.102;17.208;2023-02-28T20:05:43;65.13;;;30.33;;
40695;SDS011;40425;51.102;17.208;2023-02-28T20:10:45;65.03;;;31.63;;
40695;SDS011;40425;51.102;17.208;2023-02-28T20:15:46;70.07;;;34.37;;
40695;SDS011;40425;51.102;17.208;2023-02-28T20:20:47;81.63;;;38.40;;
40695;SDS011;40425;51.102;17.208;2023-02-28T20:25:48;87.10;;;42.43;;
40695;SDS011;40425;51.102;17.208;2023-02-28T20:30:50;85.33;;;38.87;;
40695;SDS011;40425;51.102;17.208;2023-02-28T20:35:58;91.67;;;42.30;;
40695;SDS011;40425;51.102;17.208;2023-02-28T20:41:00;85.70;;;39.13;;
40695;SDS011;40425;51.102;17.208;2023-02-28T20:46:01;77.43;;;35.97;;
40695;SDS011;40425;51.102;17.208;2023-02-28T20:51:03;87.87;;;38.27;;
40695;SDS011;40425;51.102;17.208;2023-02-28T21:01:09;77.57;;;36.73;;
40695;SDS011;40425;51.102;17.208;2023-02-28T21:06:31;79.40;;;35.43;;
40695;SDS011;40425;51.102;17.208;2023-02-28T21:11:47;72.97;;;35.47;;
40695;SDS011;40425;51.102;17.208;2023-02-28T21:16:48;70.37;;;34.00;;
40695;SDS011;40425;51.102;17.208;2023-02-28T21:21:49;74.73;;;34.23;;
40695;SDS011;40425;51.102;17.208;2023-02-28T21:26:50;68.00;;;33.80;;
40695;SDS011;40425;51.102;17.208;2023-02-28T21:31:52;64.30;;;32.90;;
40695;SDS011;40425;51.102;17.208;2023-02-28T21:36:53;58.93;;;29.17;;
40695;SDS011;40425;51.102;17.208;2023-02-28T21:41:54;58.17;;;30.23;;
40695;SDS011;40425;51.102;17.208;2023-02-28T21:47:02;71.57;;;34.20;;
40695;SDS011;40425;51.102;17.208;2023-02-28T21:52:04;65.33;;;31.87;;
40695;SDS011;40425;51.102;17.208;2023-02-28T21:57:05;63.53;;;32.20;;
40695;SDS011;40425;51.102;17.208;2023-02-28T22:02:07;96.23;;;45.93;;
40695;SDS011;40425;51.102;17.208;2023-02-28T22:07:09;88.67;;;42.70;;
40695;SDS011;40425;51.102;17.208;2023-02-28T22:12:10;70.47;;;37.03;;
40695;SDS011;40425;51.102;17.208;2023-02-28T22:17:11;76.13;;;38.23;;
40695;SDS011;40425;51.102;17.208;2023-02-28T22:22:12;77.50;;;38.57;;
40695;SDS011;40425;51.102;17.208;2023-02-28T22:27:13;77.73;;;37.37;;
40695;SDS011;40425;51.102;17.208;2023-02-28T22:32:13;83.83;;;39.73;;
40695;SDS011;40425;51.102;17.208;2023-02-28T22:37:14;69.43;;;33.77;;
40695;SDS011;40425;51.102;17.208;2023-02-28T22:42:15;71.57;;;34.77;;
40695;SDS011;40425;51.102;17.208;2023-02-28T22:47:16;69.03;;;34.57;;
40695;SDS011;40425;51.102;17.208;2023-02-28T22:52:17;70.67;;;37.40;;
40695;SDS011;40425;51.102;17.208;2023-02-28T22:57:18;77.53;;;38.00;;
40695;SDS011;40425;51.102;17.208;2023-02-28T23:02:19;87.50;;;39.80;;
40695;SDS011;40425;51.102;17.208;2023-02-28T23:07:20;99.27;;;43.83;;
40695;SDS011;40425;51.102;17.208;2023-02-28T23:12:21;109.87;;;48.43;;
40695;SDS011;40425;51.102;17.208;2023-02-28T23:17:22;104.33;;;47.83;;
40695;SDS011;40425;51.102;17.208;2023-02-28T23:22:23;83.33;;;42.80;;
40695;SDS011;40425;51.102;17.208;2023-02-28T23:27:24;84.43;;;41.07;;
40695;SDS011;40425;51.102;17.208;2023-02-28T23:32:24;79.27;;;38.97;;
40695;SDS011;40425;51.102;17.208;2023-02-28T23:37:25;83.60;;;40.27;;
40695;SDS011;40425;51.102;17.208;2023-02-28T23:42:26;95.77;;;43.27;;
40695;SDS011;40425;51.102;17.208;2023-02-28T23:47:27;86.47;;;40.37;;
40695;SDS011;40425;51.102;17.208;2023-02-28T23:52:30;85.00;;;40.13;;
40695;SDS011;40425;51.102;17.208;2023-02-28T23:57:30;98.37;;;44.47;;
